createdAt,value
2024-02-28T00:02:04.934Z,3.18
2024-02-28T00:04:31.575Z,3.06
2024-02-28T00:06:58.515Z,3.13
2024-02-28T00:09:25.293Z,3.03
2024-02-28T00:11:52.051Z,3.14
2024-02-28T00:14:18.693Z,3.16
2024-02-28T00:16:46.659Z,3.13
2024-02-28T00:19:14.325Z,3.03
2024-02-28T00:21:42.409Z,3.09
2024-02-28T00:24:10.061Z,3.11
2024-02-28T00:26:37.622Z,3.08
2024-02-28T00:29:04.484Z,3.02
2024-02-28T00:31:31.214Z,3.03
2024-02-28T00:33:58.023Z,2.97
2024-02-28T00:36:24.830Z,3.00
2024-02-28T00:38:51.591Z,2.91
2024-02-28T00:41:18.294Z,2.96
2024-02-28T00:43:45.110Z,2.98
2024-02-28T00:46:13.410Z,2.85
2024-02-28T00:48:40.887Z,2.91
2024-02-28T00:51:09.419Z,2.90
2024-02-28T00:53:36.206Z,2.86
2024-02-28T00:56:03.161Z,2.89
2024-02-28T00:58:31.303Z,2.79
2024-02-28T01:00:58.973Z,2.66
2024-02-28T01:03:26.099Z,2.74
2024-02-28T01:05:53.360Z,2.72
2024-02-28T01:08:20.242Z,2.72
2024-02-28T01:10:47.621Z,2.64
2024-02-28T01:13:14.653Z,2.55
2024-02-28T01:15:43.248Z,2.67
2024-02-28T01:18:11.334Z,2.54
2024-02-28T01:20:38.490Z,2.58
2024-02-28T01:23:05.623Z,2.61
2024-02-28T01:25:32.393Z,2.54
2024-02-28T01:27:59.595Z,2.60
2024-02-28T01:30:27.135Z,2.51
2024-02-28T01:32:54.093Z,2.60
2024-02-28T01:35:20.896Z,2.49
2024-02-28T01:37:47.566Z,2.53
2024-02-28T01:40:14.623Z,2.48
2024-02-28T01:42:41.455Z,2.52
2024-02-28T01:45:10.362Z,2.54
2024-02-28T01:47:38.294Z,2.59
2024-02-28T01:50:05.998Z,2.49
2024-02-28T01:52:33.066Z,2.44
2024-02-28T01:55:00.088Z,2.50
2024-02-28T01:57:28.435Z,2.50
2024-02-28T01:59:57.060Z,2.44
2024-02-28T02:02:23.690Z,2.34
2024-02-28T02:04:50.365Z,2.52
2024-02-28T02:07:17.016Z,2.41
2024-02-28T02:09:43.802Z,2.41
2024-02-28T02:12:10.603Z,2.46
2024-02-28T02:14:37.195Z,2.49
2024-02-28T02:17:03.796Z,2.43
2024-02-28T02:24:59.665Z,2.49
2024-02-28T02:27:27.243Z,2.49
2024-02-28T02:29:53.896Z,2.44
2024-02-28T02:32:20.529Z,2.44
2024-02-28T02:34:47.181Z,2.45
2024-02-28T02:37:13.771Z,2.50
2024-02-28T02:39:40.455Z,2.44
2024-02-28T02:42:07.221Z,2.37
2024-02-28T02:44:34.967Z,2.35
2024-02-28T02:47:01.658Z,2.33
2024-02-28T02:49:28.248Z,2.37
2024-02-28T02:51:54.864Z,2.32
2024-02-28T02:54:21.647Z,2.40
2024-02-28T02:56:48.278Z,2.39
2024-02-28T02:59:14.980Z,2.49
2024-02-28T03:01:41.672Z,2.37
2024-02-28T03:04:08.275Z,2.45
2024-02-28T03:06:35.192Z,2.39
2024-02-28T03:09:01.892Z,2.46
2024-02-28T03:11:28.636Z,2.43
2024-02-28T03:13:55.344Z,2.49
2024-02-28T03:16:22.186Z,2.56
2024-02-28T03:18:48.862Z,2.59
2024-02-28T03:21:15.867Z,2.42
2024-02-28T03:23:42.524Z,2.55
2024-02-28T03:26:09.231Z,2.57
2024-02-28T03:28:35.857Z,2.59
2024-02-28T03:31:02.933Z,2.58
2024-02-28T03:33:32.816Z,2.56
2024-02-28T03:35:59.482Z,2.52
2024-02-28T03:38:26.223Z,2.58
2024-02-28T03:40:52.921Z,2.49
2024-02-28T03:43:19.551Z,2.56
2024-02-28T03:45:46.352Z,2.54
2024-02-28T03:48:13.117Z,2.55
2024-02-28T03:50:39.789Z,2.54
2024-02-28T03:53:06.526Z,2.55
2024-02-28T03:55:33.217Z,2.53
2024-02-28T03:57:59.919Z,2.57
2024-02-28T04:00:27.316Z,2.57
2024-02-28T04:02:54.028Z,2.63
2024-02-28T04:05:20.710Z,2.55
2024-02-28T04:07:47.390Z,2.55
2024-02-28T04:10:14.055Z,2.51
2024-02-28T04:12:40.818Z,2.50
2024-02-28T04:15:07.760Z,2.46
2024-02-28T04:17:34.432Z,2.51
2024-02-28T04:20:05.587Z,2.50
2024-02-28T04:22:32.881Z,2.54
2024-02-28T04:24:59.595Z,2.50
2024-02-28T04:27:26.326Z,2.40
2024-02-28T04:29:53.058Z,2.53
2024-02-28T04:32:19.767Z,2.57
2024-02-28T04:34:46.386Z,2.54
2024-02-28T04:37:13.097Z,2.48
2024-02-28T04:39:39.746Z,2.42
2024-02-28T04:42:06.422Z,2.48
2024-02-28T04:44:33.056Z,2.45
2024-02-28T04:46:59.910Z,2.40
2024-02-28T04:49:27.114Z,2.42
2024-02-28T04:51:54.167Z,2.51
2024-02-28T04:54:21.303Z,2.44
2024-02-28T04:56:47.954Z,2.43
2024-02-28T04:59:14.884Z,2.48
2024-02-28T05:01:43.267Z,2.50
2024-02-28T05:04:10.827Z,2.52
2024-02-28T05:06:40.422Z,2.46
2024-02-28T05:09:08.018Z,2.32
2024-02-28T05:11:34.727Z,2.44
2024-02-28T05:14:01.411Z,2.45
2024-02-28T05:16:28.068Z,2.38
2024-02-28T05:18:54.813Z,2.41
2024-02-28T05:21:21.602Z,2.43
2024-02-28T05:23:48.324Z,2.44
2024-02-28T05:26:15.235Z,2.51
2024-02-28T05:28:42.009Z,2.39
2024-02-28T05:31:25.822Z,2.50
2024-02-28T05:33:58.746Z,2.54
2024-02-28T05:36:27.838Z,2.48
2024-02-28T05:38:55.851Z,2.35
2024-02-28T05:41:22.834Z,2.54
2024-02-28T05:43:49.994Z,2.56
2024-02-28T05:46:17.837Z,2.59
2024-02-28T05:48:45.393Z,2.59
2024-02-28T05:51:14.374Z,2.61
2024-02-28T05:53:44.474Z,2.61
2024-02-28T05:56:14.995Z,2.64
2024-02-28T05:58:42.940Z,2.61
2024-02-28T06:01:10.535Z,2.70
2024-02-28T06:03:38.306Z,2.76
2024-02-28T06:06:08.497Z,2.80
2024-02-28T06:08:36.312Z,2.74
2024-02-28T06:11:03.206Z,2.80
2024-02-28T06:13:32.868Z,2.82
2024-02-28T06:15:59.818Z,2.86
2024-02-28T06:18:28.498Z,2.97
2024-02-28T06:20:56.491Z,2.94
2024-02-28T06:23:28.567Z,2.91
2024-02-28T06:25:57.071Z,3.03
2024-02-28T06:28:23.970Z,3.04
2024-02-28T06:30:50.784Z,3.00
2024-02-28T06:33:17.683Z,3.15
2024-02-28T06:35:44.401Z,3.23
2024-02-28T06:38:11.038Z,3.19
2024-02-28T06:40:37.764Z,3.20
2024-02-28T06:43:05.158Z,3.26
2024-02-28T06:45:31.996Z,3.23
2024-02-28T06:47:59.432Z,3.29
2024-02-28T06:50:26.117Z,3.26
2024-02-28T06:52:55.068Z,3.35
2024-02-28T06:55:22.226Z,3.46
2024-02-28T06:57:49.295Z,3.43
2024-02-28T07:00:17.375Z,3.51
2024-02-28T07:02:44.646Z,3.54
2024-02-28T07:05:11.805Z,3.59
2024-02-28T07:07:38.672Z,3.53
2024-02-28T07:10:05.980Z,3.51
2024-02-28T07:12:33.225Z,3.66
2024-02-28T07:15:00.194Z,3.73
2024-02-28T07:17:27.046Z,3.76
2024-02-28T07:19:53.653Z,3.80
2024-02-28T07:22:20.623Z,3.85
2024-02-28T07:24:47.359Z,3.88
2024-02-28T07:27:14.085Z,3.90
2024-02-28T07:29:40.797Z,3.92
2024-02-28T07:32:07.796Z,3.90
2024-02-28T07:34:35.073Z,3.90
2024-02-28T07:37:02.009Z,3.81
2024-02-28T07:39:28.929Z,3.90
2024-02-28T07:41:56.603Z,3.98
2024-02-28T07:44:23.956Z,4.05
2024-02-28T07:46:52.338Z,4.15
2024-02-28T07:49:19.661Z,4.20
2024-02-28T07:51:46.773Z,4.20
2024-02-28T07:54:13.669Z,4.30
2024-02-28T07:56:40.622Z,4.44
2024-02-28T07:59:07.353Z,4.41
2024-02-28T08:01:35.060Z,4.31
2024-02-28T08:04:03.333Z,4.48
2024-02-28T08:06:30.343Z,4.53
2024-02-28T08:08:57.145Z,4.47
2024-02-28T08:11:24.572Z,4.62
2024-02-28T08:13:51.344Z,4.73
2024-02-28T08:16:18.232Z,4.70
2024-02-28T08:18:45.709Z,4.74
2024-02-28T08:21:12.596Z,4.70
2024-02-28T08:23:39.713Z,4.80
2024-02-28T08:26:06.421Z,4.76
2024-02-28T08:28:33.149Z,4.73
2024-02-28T15:19:13.633Z,9.75
2024-02-28T15:21:40.416Z,9.67
2024-02-28T15:24:07.402Z,9.56
2024-02-28T15:26:42.525Z,9.48
2024-02-28T15:29:13.304Z,9.50
2024-02-28T15:31:40.086Z,9.47
2024-02-28T15:34:06.910Z,9.34
2024-02-28T15:36:33.650Z,9.28
2024-02-28T15:39:00.271Z,9.20
2024-02-28T15:41:27.009Z,9.18
2024-02-28T15:43:53.585Z,9.13
2024-02-28T15:46:20.298Z,9.02
2024-02-28T15:48:47.043Z,9.02
2024-02-28T15:51:13.811Z,8.91
2024-02-28T15:53:40.508Z,8.84
2024-02-28T15:56:07.558Z,8.79
2024-02-28T15:58:35.328Z,8.73
2024-02-28T16:01:02.219Z,8.65
2024-02-28T16:03:29.122Z,8.58
2024-02-28T16:05:55.782Z,8.56
2024-02-28T16:08:24.735Z,8.50
2024-02-28T16:10:51.447Z,8.46
2024-02-28T16:13:18.185Z,8.37
2024-02-28T16:15:44.856Z,8.29
2024-02-28T16:18:11.564Z,8.35
2024-02-28T16:20:38.157Z,8.36
2024-02-28T16:23:05.501Z,8.27
2024-02-28T16:25:32.623Z,8.26
2024-02-28T16:27:59.315Z,8.22
2024-02-28T16:30:26.032Z,8.21
2024-02-28T16:32:53.135Z,8.11
2024-02-28T16:35:19.881Z,8.07
2024-02-28T16:37:46.551Z,7.97
2024-02-28T16:40:13.308Z,7.97
2024-02-28T16:42:40.165Z,7.94
2024-02-28T16:45:07.501Z,7.91
2024-02-28T16:47:34.122Z,7.89
2024-02-28T16:50:00.751Z,7.90
2024-02-28T16:52:27.940Z,7.83
2024-02-28T16:54:54.655Z,7.82
2024-02-28T16:57:21.332Z,7.75
2024-02-28T16:59:47.982Z,7.78
2024-02-28T17:02:14.563Z,7.78
2024-02-28T17:04:41.231Z,7.72
2024-02-28T17:07:08.037Z,7.70
2024-02-28T17:09:34.776Z,7.69
2024-02-28T17:12:01.444Z,7.67
2024-02-28T17:14:28.157Z,7.67
2024-02-28T17:16:54.790Z,7.59
2024-02-28T17:19:21.402Z,7.57
2024-02-28T17:21:48.129Z,7.55
2024-02-28T17:24:14.898Z,7.54
2024-02-28T17:26:41.936Z,7.54
2024-02-28T17:29:09.213Z,7.48
2024-02-28T17:31:35.964Z,7.44
2024-02-28T17:34:02.798Z,7.43
2024-02-28T17:36:29.687Z,7.40
2024-02-28T17:38:56.336Z,7.38
2024-02-28T17:41:23.067Z,7.31
2024-02-28T17:43:49.758Z,7.25
2024-02-28T17:46:16.473Z,7.23
2024-02-28T17:48:44.606Z,7.26
2024-02-28T17:51:11.585Z,7.26
2024-02-28T17:53:38.211Z,7.24
2024-02-28T17:56:07.047Z,7.18
2024-02-28T17:58:33.624Z,7.04
2024-02-28T18:01:03.251Z,7.02
2024-02-28T18:03:29.969Z,7.04
2024-02-28T18:05:56.833Z,7.05
2024-02-28T18:08:23.521Z,7.02
2024-02-28T18:10:50.248Z,7.05
2024-02-28T18:13:19.000Z,6.99
2024-02-28T18:15:45.729Z,6.93
2024-02-28T18:18:12.791Z,6.92
2024-02-28T18:20:39.440Z,6.93
2024-02-28T18:23:07.591Z,6.92
2024-02-28T18:25:35.589Z,6.87
2024-02-28T18:28:03.530Z,6.84
2024-02-28T18:30:30.635Z,6.87
2024-02-28T18:32:57.382Z,6.90
2024-02-28T18:35:24.105Z,6.88
2024-02-28T18:37:50.674Z,6.87
2024-02-28T18:40:17.488Z,6.84
2024-02-28T18:42:44.787Z,6.86
2024-02-28T18:45:12.471Z,6.79
2024-02-28T18:47:40.149Z,6.74
2024-02-28T18:50:08.182Z,6.82
2024-02-28T18:52:34.840Z,6.80
2024-02-28T18:55:01.684Z,6.69
2024-02-28T18:57:28.348Z,6.62
2024-02-28T18:59:55.834Z,6.67
2024-02-28T19:02:22.605Z,6.72
2024-02-28T19:04:49.236Z,6.70
2024-02-28T19:07:16.829Z,6.65
2024-02-28T19:09:43.587Z,6.58
2024-02-28T19:12:10.314Z,6.57
2024-02-28T19:14:37.779Z,6.60
2024-02-28T19:17:04.948Z,6.58
2024-02-28T19:19:34.734Z,6.52
2024-02-28T19:22:01.468Z,6.53
2024-02-28T19:24:28.132Z,6.55
2024-02-28T19:26:55.097Z,6.52
2024-02-28T19:29:21.790Z,6.47
2024-02-28T19:31:49.150Z,6.49
2024-02-28T19:34:15.883Z,6.51
2024-02-28T19:36:42.676Z,6.47
2024-02-28T19:39:09.384Z,6.39
2024-02-28T19:41:36.130Z,6.41
2024-02-28T19:44:05.940Z,6.33
2024-02-28T19:46:34.449Z,6.40
2024-02-28T19:49:01.984Z,6.34
2024-02-28T19:51:28.794Z,6.33
2024-02-28T19:53:55.528Z,6.35
2024-02-28T19:56:23.469Z,6.25
2024-02-28T19:58:52.266Z,6.25
2024-02-28T20:01:19.161Z,6.27
2024-02-28T20:03:45.926Z,6.27
2024-02-28T20:06:12.646Z,6.25
2024-02-28T20:08:40.949Z,6.25
2024-02-28T20:11:08.971Z,6.32
2024-02-28T20:13:35.764Z,6.26
2024-02-28T20:16:02.573Z,6.23
2024-02-28T20:18:29.409Z,6.16
2024-02-28T20:20:56.145Z,6.19
2024-02-28T20:23:23.013Z,6.19
2024-02-28T20:25:50.191Z,6.20
2024-02-28T20:28:22.396Z,6.13
2024-02-28T20:30:50.000Z,6.22
2024-02-28T20:33:16.802Z,6.18
2024-02-28T20:35:43.509Z,6.19
2024-02-28T20:38:10.332Z,6.14
2024-02-28T20:40:37.186Z,6.16
2024-02-28T20:43:04.305Z,6.10
2024-02-28T20:45:31.214Z,6.14
2024-02-28T20:47:57.889Z,6.16
2024-02-28T20:50:26.192Z,6.14
2024-02-28T20:52:53.264Z,6.07
2024-02-28T20:55:21.564Z,6.09
2024-02-28T20:57:48.338Z,6.02
2024-02-28T21:00:16.767Z,6.17
2024-02-28T21:02:43.546Z,6.10
2024-02-28T21:05:10.683Z,6.06
2024-02-28T21:07:45.522Z,6.05
2024-02-28T21:10:19.226Z,6.09
2024-02-28T21:12:45.932Z,6.07
2024-02-28T21:15:12.682Z,6.05
2024-02-28T21:17:39.871Z,6.08
2024-02-28T21:20:07.072Z,6.10
2024-02-28T21:22:36.602Z,6.10
2024-02-28T21:25:04.101Z,6.18
2024-02-28T21:27:31.074Z,6.14
2024-02-28T21:30:00.056Z,6.17
2024-02-28T21:32:26.937Z,6.19
2024-02-28T21:34:53.702Z,6.13
2024-02-28T21:37:20.312Z,6.08
2024-02-28T21:39:47.278Z,6.02
2024-02-28T21:42:13.977Z,6.11
2024-02-28T21:44:40.843Z,6.11
2024-02-28T21:47:09.001Z,6.13
2024-02-28T21:49:35.767Z,6.12
2024-02-28T21:52:02.530Z,6.05
2024-02-28T21:54:29.201Z,6.08
2024-02-28T21:56:56.919Z,6.12
2024-02-28T21:59:23.550Z,6.05
2024-02-28T22:01:50.242Z,6.03
2024-02-28T22:04:16.947Z,5.96
2024-02-28T22:06:43.639Z,5.95
2024-02-28T22:09:10.318Z,5.94
2024-02-28T22:11:37.029Z,5.92
2024-02-28T22:14:03.944Z,5.88
2024-02-28T22:16:30.546Z,5.93
2024-02-28T22:18:57.291Z,5.85
2024-02-28T22:21:23.967Z,5.83
2024-02-28T22:23:50.613Z,5.77
2024-02-28T22:26:20.259Z,5.75
2024-02-28T22:28:47.099Z,5.75
2024-02-28T22:31:14.344Z,5.76
2024-02-28T22:33:41.244Z,5.60
2024-02-28T22:36:12.109Z,5.62
2024-02-28T22:38:39.588Z,5.68
2024-02-28T22:41:06.739Z,5.59
2024-02-28T22:43:34.835Z,5.57
2024-02-28T22:46:02.671Z,5.55
2024-02-28T22:48:29.487Z,5.55
2024-02-28T22:50:56.421Z,5.53
2024-02-28T22:53:23.178Z,5.45
2024-02-28T22:55:50.038Z,5.47
2024-02-28T22:58:16.749Z,5.50
2024-02-28T23:00:44.208Z,5.47
2024-02-28T23:03:11.038Z,5.49
2024-02-28T23:05:37.633Z,5.43
2024-02-28T23:08:04.842Z,5.37
2024-02-28T23:10:32.493Z,5.34
2024-02-28T23:13:00.928Z,5.34
2024-02-28T23:15:27.891Z,5.26
2024-02-28T23:17:55.907Z,5.27
2024-02-28T23:20:26.805Z,5.26
2024-02-28T23:22:55.018Z,5.27
2024-02-28T23:25:22.535Z,5.19
2024-02-28T23:27:50.972Z,5.25
2024-02-28T23:30:17.950Z,5.24
2024-02-28T23:32:44.753Z,5.19
2024-02-28T23:35:11.601Z,5.20
2024-02-28T23:37:39.736Z,5.20
2024-02-28T23:40:10.509Z,5.09
2024-02-28T23:42:37.401Z,5.13
2024-02-28T23:45:04.877Z,5.17
2024-02-28T23:47:32.079Z,5.13
2024-02-28T23:49:58.842Z,5.11
2024-02-28T23:52:25.585Z,5.12
2024-02-28T23:54:52.358Z,5.05
2024-02-28T23:57:19.013Z,5.12
2024-02-28T23:59:45.611Z,5.06
